createdAt,value
2017-07-01T14:51:32.532Z,20.97
2017-07-01T14:54:00.391Z,20.94
2017-07-01T14:56:28.260Z,20.85
2017-07-01T14:58:56.173Z,20.95
2017-07-01T15:01:24.349Z,20.91
2017-07-01T15:03:53.382Z,20.86
2017-07-01T15:06:21.320Z,20.94
2017-07-01T15:08:49.192Z,20.83
2017-07-01T15:11:17.717Z,20.95
2017-07-01T15:13:45.819Z,21.01
2017-07-01T15:16:15.466Z,21.17
2017-07-01T15:18:43.683Z,21.20
2017-07-01T15:21:13.074Z,21.09
2017-07-01T15:23:44.285Z,21.13
2017-07-01T15:26:13.249Z,21.02
2017-07-01T15:28:45.574Z,20.64
2017-07-01T15:31:14.602Z,20.45
2017-07-01T15:33:42.766Z,20.29
2017-07-01T15:36:10.907Z,20.26
2017-07-01T15:38:39.699Z,20.46
2017-07-01T15:41:11.701Z,20.54
2017-07-01T15:43:40.600Z,20.33
2017-07-01T15:46:10.819Z,20.12
2017-07-01T15:48:39.404Z,20.04
2017-07-01T15:51:07.363Z,20.30
2017-07-01T15:53:36.867Z,20.32
2017-07-01T15:56:06.432Z,20.10
2017-07-01T15:58:35.731Z,20.18
2017-07-01T16:01:15.530Z,19.92
2017-07-01T16:03:43.525Z,19.61
2017-07-01T16:06:11.534Z,19.44
2017-07-01T16:08:41.187Z,19.48
2017-07-01T16:11:11.065Z,19.32
2017-07-01T16:13:41.441Z,19.13
2017-07-01T16:16:11.377Z,19.17
2017-07-01T16:18:44.775Z,19.00
2017-07-01T16:21:12.965Z,18.88
2017-07-01T16:23:42.739Z,19.13
2017-07-01T16:26:10.764Z,18.81
2017-07-01T16:28:39.450Z,18.65
2017-07-01T16:31:08.980Z,18.66
2017-07-01T16:33:41.724Z,18.51
2017-07-01T16:36:10.554Z,18.51
2017-07-01T16:38:40.262Z,18.56
2017-07-01T16:41:08.355Z,18.36
2017-07-01T16:43:37.459Z,18.17
2017-07-01T16:46:05.286Z,17.94
2017-07-01T16:48:36.202Z,17.71
2017-07-01T16:51:04.476Z,17.71
2017-07-01T16:53:33.986Z,17.70
2017-07-01T16:56:03.648Z,17.53
2017-07-01T16:58:31.826Z,17.46
2017-07-01T17:01:00.735Z,17.31
2017-07-01T17:03:29.406Z,17.13
2017-07-01T17:05:57.469Z,17.05
2017-07-01T17:08:25.456Z,16.97
2017-07-01T17:10:53.441Z,16.81
2017-07-01T17:13:21.536Z,16.71
2017-07-01T17:15:49.422Z,16.62
2017-07-01T17:18:17.334Z,16.67
2017-07-01T17:20:45.161Z,16.78
2017-07-01T17:23:13.061Z,16.80
2017-07-01T17:25:40.874Z,16.82
2017-07-01T17:28:08.806Z,16.70
2017-07-01T17:30:36.667Z,16.82
2017-07-01T17:33:04.593Z,16.67
2017-07-01T17:35:33.155Z,16.83
2017-07-01T17:38:00.983Z,16.58
2017-07-01T17:40:28.867Z,16.69
2017-07-01T17:42:56.712Z,16.61
2017-07-01T17:45:24.639Z,16.76
2017-07-01T17:47:52.434Z,16.58
2017-07-01T17:50:20.960Z,16.39
2017-07-01T17:52:50.011Z,16.61
2017-07-01T17:55:18.405Z,16.47
2017-07-01T17:57:46.172Z,16.48
2017-07-01T18:00:13.991Z,16.52
2017-07-01T18:02:41.913Z,16.58
2017-07-01T18:05:09.779Z,16.61
2017-07-01T18:07:37.627Z,16.54
2017-07-01T18:10:05.501Z,16.42
2017-07-01T18:12:33.321Z,16.35
2017-07-01T18:15:01.211Z,16.32
2017-07-01T18:17:29.863Z,16.34
2017-07-01T18:19:57.805Z,16.13
2017-07-01T18:22:26.693Z,16.02
2017-07-01T18:24:54.487Z,16.09
2017-07-01T18:27:22.314Z,16.17
2017-07-01T18:29:50.198Z,16.09
2017-07-01T18:32:17.992Z,16.21
2017-07-01T18:34:45.777Z,16.15
2017-07-01T18:37:13.646Z,16.05
2017-07-01T18:39:41.568Z,15.86
2017-07-01T18:42:09.428Z,15.87
2017-07-01T18:44:37.288Z,15.82
2017-07-01T18:47:05.220Z,15.98
2017-07-01T18:49:33.473Z,15.93
2017-07-01T18:52:01.264Z,15.86
2017-07-01T18:54:29.112Z,15.77
2017-07-01T18:56:56.924Z,15.71
2017-07-01T18:59:24.870Z,15.84
2017-07-01T19:01:52.676Z,15.89
2017-07-01T19:04:20.493Z,15.78
2017-07-01T19:06:48.415Z,15.65
2017-07-01T19:09:16.307Z,15.70
2017-07-01T19:11:44.103Z,15.76
2017-07-01T19:14:12.255Z,15.79
2017-07-01T19:16:40.223Z,15.62
2017-07-01T19:19:08.065Z,15.66
2017-07-01T19:21:36.049Z,15.76
2017-07-01T19:24:04.002Z,15.65
2017-07-01T19:26:31.899Z,15.58
2017-07-01T19:28:59.746Z,15.62
2017-07-01T19:31:27.660Z,15.74
2017-07-01T19:33:55.724Z,15.69
2017-07-01T19:36:23.734Z,15.69
2017-07-01T19:38:52.254Z,15.62
2017-07-01T19:41:20.171Z,15.67
2017-07-01T19:43:48.316Z,15.74
2017-07-01T19:46:16.989Z,15.77
2017-07-01T19:48:48.025Z,15.75
2017-07-01T19:51:16.522Z,15.67
2017-07-01T19:53:44.398Z,15.61
2017-07-01T19:56:12.464Z,15.66
2017-07-01T19:58:40.249Z,15.70
2017-07-01T20:01:08.099Z,15.68
2017-07-01T20:03:36.209Z,15.64
2017-07-01T20:06:04.003Z,15.58
2017-07-01T20:08:31.924Z,15.58
2017-07-01T20:10:59.795Z,15.53
2017-07-01T20:13:27.840Z,15.49
2017-07-01T20:15:55.810Z,15.51
2017-07-01T20:18:23.837Z,15.41
2017-07-01T20:20:51.760Z,15.35
2017-07-01T20:23:20.088Z,15.40
2017-07-01T20:25:48.277Z,15.35
2017-07-01T20:28:16.239Z,15.24
2017-07-01T20:30:44.035Z,15.20
2017-07-01T20:33:11.944Z,15.17
2017-07-01T20:35:39.805Z,15.07
2017-07-01T20:38:07.727Z,15.04
2017-07-01T20:40:35.979Z,15.04
2017-07-01T20:43:05.825Z,14.96
2017-07-01T20:45:33.593Z,15.07
2017-07-01T20:48:01.548Z,15.07
2017-07-01T20:50:29.388Z,15.05
2017-07-01T20:52:57.172Z,14.96
2017-07-01T20:55:27.883Z,15.00
2017-07-01T20:57:55.679Z,14.91
2017-07-01T21:00:23.577Z,14.90
2017-07-01T21:02:52.637Z,14.92
2017-07-01T21:05:20.406Z,14.83
2017-07-01T21:34:09.764Z,14.82
2017-07-01T21:36:37.674Z,14.85
2017-07-01T21:39:05.555Z,14.80
2017-07-01T21:41:33.441Z,14.81
2017-07-01T21:44:01.256Z,14.83
2017-07-01T21:46:29.092Z,14.80
2017-07-01T21:48:57.230Z,14.79
2017-07-01T21:51:24.990Z,14.77
2017-07-01T21:53:52.880Z,14.80
2017-07-01T21:56:21.085Z,14.82
2017-07-01T21:58:48.945Z,14.81
2017-07-01T22:01:16.752Z,14.79
2017-07-01T22:03:45.261Z,14.70
2017-07-01T22:06:13.120Z,14.79
2017-07-01T22:08:40.886Z,14.80
2017-07-01T22:11:09.553Z,14.81
2017-07-01T22:13:37.426Z,14.76
2017-07-01T22:16:05.297Z,14.74
2017-07-01T22:18:33.050Z,14.78
2017-07-01T22:21:01.093Z,14.82
2017-07-01T22:23:30.090Z,14.76
2017-07-01T22:25:58.446Z,14.77
2017-07-01T22:28:26.325Z,14.69
2017-07-01T22:30:54.135Z,14.73
2017-07-01T22:33:22.054Z,14.71
2017-07-01T22:35:50.013Z,14.74
2017-07-01T22:38:17.885Z,14.60
2017-07-01T22:40:47.333Z,14.59
2017-07-01T22:43:15.351Z,14.53
2017-07-01T22:45:43.305Z,14.46
2017-07-01T22:48:12.358Z,14.54
2017-07-01T22:50:40.327Z,14.55
2017-07-01T22:53:08.267Z,14.57
2017-07-01T22:55:36.151Z,14.61
2017-07-01T22:58:04.145Z,14.63
2017-07-01T23:00:32.061Z,14.57
2017-07-01T23:02:59.881Z,14.54
2017-07-01T23:05:27.737Z,14.56
2017-07-01T23:07:55.658Z,14.60
2017-07-01T23:10:24.651Z,14.54
2017-07-01T23:12:53.389Z,14.56
2017-07-01T23:15:21.769Z,14.46
2017-07-01T23:17:49.617Z,14.57
2017-07-01T23:20:18.523Z,14.56
2017-07-01T23:22:46.349Z,14.53
2017-07-01T23:25:14.275Z,14.58
2017-07-01T23:27:42.144Z,14.55
2017-07-01T23:30:09.902Z,14.47
2017-07-01T23:32:37.689Z,14.51
2017-07-01T23:35:05.589Z,14.54
2017-07-01T23:37:33.379Z,14.53
2017-07-01T23:40:02.987Z,14.43
2017-07-01T23:42:30.791Z,14.43
2017-07-01T23:44:58.667Z,14.46
2017-07-01T23:47:26.448Z,14.39
2017-07-01T23:49:54.265Z,14.36
2017-07-01T23:52:22.091Z,14.34
2017-07-01T23:54:49.870Z,14.18
2017-07-01T23:57:17.763Z,14.15
2017-07-01T23:59:45.524Z,14.14
